sensor_id;sensor_type;location;lat;lon;timestamp;P1;durP1;ratioP1;P2;durP2;ratioP2
67248;SDS011;54162;54.300;18.592;2022-08-06T00:02:18;10.63;;;5.80;;
67248;SDS011;54162;54.300;18.592;2022-08-06T00:04:46;9.02;;;5.20;;
67248;SDS011;54162;54.300;18.592;2022-08-06T00:07:12;9.80;;;5.25;;
67248;SDS011;54162;54.300;18.592;2022-08-06T00:09:38;9.75;;;5.55;;
67248;SDS011;54162;54.300;18.592;2022-08-06T00:12:04;10.87;;;5.40;;
67248;SDS011;54162;54.300;18.592;2022-08-06T00:14:30;10.13;;;5.45;;
67248;SDS011;54162;54.300;18.592;2022-08-06T00:16:57;11.52;;;5.40;;
67248;SDS011;54162;54.300;18.592;2022-08-06T00:19:23;9.50;;;5.60;;
67248;SDS011;54162;54.300;18.592;2022-08-06T00:21:49;9.33;;;5.30;;
67248;SDS011;54162;54.300;18.592;2022-08-06T00:24:15;10.10;;;4.88;;
67248;SDS011;54162;54.300;18.592;2022-08-06T00:26:41;10.47;;;5.60;;
67248;SDS011;54162;54.300;18.592;2022-08-06T00:29:06;11.27;;;5.30;;
67248;SDS011;54162;54.300;18.592;2022-08-06T00:31:32;8.57;;;4.90;;
67248;SDS011;54162;54.300;18.592;2022-08-06T00:33:58;9.05;;;4.90;;
67248;SDS011;54162;54.300;18.592;2022-08-06T00:36:26;9.95;;;4.97;;
67248;SDS011;54162;54.300;18.592;2022-08-06T00:38:52;9.65;;;4.80;;
67248;SDS011;54162;54.300;18.592;2022-08-06T00:41:18;9.17;;;4.90;;
67248;SDS011;54162;54.300;18.592;2022-08-06T00:43:44;8.57;;;4.30;;
67248;SDS011;54162;54.300;18.592;2022-08-06T00:46:10;8.93;;;4.60;;
67248;SDS011;54162;54.300;18.592;2022-08-06T00:48:35;9.47;;;4.53;;
67248;SDS011;54162;54.300;18.592;2022-08-06T00:51:01;9.02;;;4.50;;
67248;SDS011;54162;54.300;18.592;2022-08-06T00:53:27;10.57;;;4.50;;
67248;SDS011;54162;54.300;18.592;2022-08-06T00:55:53;8.93;;;4.30;;
67248;SDS011;54162;54.300;18.592;2022-08-06T00:58:18;8.60;;;4.60;;
67248;SDS011;54162;54.300;18.592;2022-08-06T01:00:44;9.02;;;4.30;;
67248;SDS011;54162;54.300;18.592;2022-08-06T01:03:09;8.93;;;5.00;;
67248;SDS011;54162;54.300;18.592;2022-08-06T01:05:36;8.73;;;4.45;;
67248;SDS011;54162;54.300;18.592;2022-08-06T01:08:01;9.52;;;4.65;;
67248;SDS011;54162;54.300;18.592;2022-08-06T01:10:28;11.13;;;4.50;;
67248;SDS011;54162;54.300;18.592;2022-08-06T01:12:53;10.77;;;4.78;;
67248;SDS011;54162;54.300;18.592;2022-08-06T01:15:19;7.37;;;4.30;;
67248;SDS011;54162;54.300;18.592;2022-08-06T01:20:19;9.55;;;4.50;;
67248;SDS011;54162;54.300;18.592;2022-08-06T01:28:51;13.20;;;4.70;;
67248;SDS011;54162;54.300;18.592;2022-08-06T01:31:31;9.70;;;3.40;;
67248;SDS011;54162;54.300;18.592;2022-08-06T01:34:10;8.77;;;3.33;;
67248;SDS011;54162;54.300;18.592;2022-08-06T01:36:44;10.80;;;3.33;;
67248;SDS011;54162;54.300;18.592;2022-08-06T01:39:15;9.55;;;3.60;;
67248;SDS011;54162;54.300;18.592;2022-08-06T01:41:43;6.07;;;3.38;;
67248;SDS011;54162;54.300;18.592;2022-08-06T01:44:16;7.88;;;3.60;;
67248;SDS011;54162;54.300;18.592;2022-08-06T01:46:46;8.55;;;3.38;;
67248;SDS011;54162;54.300;18.592;2022-08-06T01:49:16;6.82;;;3.33;;
67248;SDS011;54162;54.300;18.592;2022-08-06T01:51:45;8.73;;;3.35;;
67248;SDS011;54162;54.300;18.592;2022-08-06T01:54:14;9.68;;;3.03;;
67248;SDS011;54162;54.300;18.592;2022-08-06T01:56:41;9.80;;;2.80;;
67248;SDS011;54162;54.300;18.592;2022-08-06T01:59:09;7.93;;;2.97;;
67248;SDS011;54162;54.300;18.592;2022-08-06T02:01:37;5.75;;;2.47;;
67248;SDS011;54162;54.300;18.592;2022-08-06T02:04:03;5.93;;;2.08;;
67248;SDS011;54162;54.300;18.592;2022-08-06T02:06:40;5.35;;;1.88;;
67248;SDS011;54162;54.300;18.592;2022-08-06T02:09:14;7.78;;;1.98;;
67248;SDS011;54162;54.300;18.592;2022-08-06T02:11:43;6.72;;;2.03;;
67248;SDS011;54162;54.300;18.592;2022-08-06T02:14:12;6.18;;;2.00;;
67248;SDS011;54162;54.300;18.592;2022-08-06T02:16:39;6.78;;;1.80;;
67248;SDS011;54162;54.300;18.592;2022-08-06T02:19:07;4.60;;;1.90;;
67248;SDS011;54162;54.300;18.592;2022-08-06T02:21:36;5.00;;;1.70;;
67248;SDS011;54162;54.300;18.592;2022-08-06T02:24:05;5.68;;;2.00;;
67248;SDS011;54162;54.300;18.592;2022-08-06T02:26:33;4.97;;;1.90;;
67248;SDS011;54162;54.300;18.592;2022-08-06T02:29:00;6.22;;;1.88;;
67248;SDS011;54162;54.300;18.592;2022-08-06T02:31:29;3.97;;;1.80;;
67248;SDS011;54162;54.300;18.592;2022-08-06T02:33:54;5.85;;;2.05;;
67248;SDS011;54162;54.300;18.592;2022-08-06T02:36:24;7.05;;;1.98;;
67248;SDS011;54162;54.300;18.592;2022-08-06T02:39:24;5.53;;;1.80;;
67248;SDS011;54162;54.300;18.592;2022-08-06T02:47:14;6.32;;;1.20;;
67248;SDS011;54162;54.300;18.592;2022-08-06T02:49:44;5.75;;;1.27;;
67248;SDS011;54162;54.300;18.592;2022-08-06T02:52:22;4.93;;;1.40;;
67248;SDS011;54162;54.300;18.592;2022-08-06T02:55:11;5.65;;;1.40;;
67248;SDS011;54162;54.300;18.592;2022-08-06T02:57:51;2.55;;;1.08;;
67248;SDS011;54162;54.300;18.592;2022-08-06T03:00:19;5.50;;;1.27;;
67248;SDS011;54162;54.300;18.592;2022-08-06T03:02:47;3.60;;;1.30;;
67248;SDS011;54162;54.300;18.592;2022-08-06T03:05:18;2.75;;;1.20;;
67248;SDS011;54162;54.300;18.592;2022-08-06T03:07:47;4.60;;;1.20;;
67248;SDS011;54162;54.300;18.592;2022-08-06T03:10:17;3.90;;;1.25;;
67248;SDS011;54162;54.300;18.592;2022-08-06T03:12:45;3.97;;;1.27;;
67248;SDS011;54162;54.300;18.592;2022-08-06T03:15:11;2.83;;;1.20;;
67248;SDS011;54162;54.300;18.592;2022-08-06T03:17:40;5.45;;;1.30;;
67248;SDS011;54162;54.300;18.592;2022-08-06T03:20:07;6.22;;;1.30;;
67248;SDS011;54162;54.300;18.592;2022-08-06T03:22:34;3.97;;;1.10;;
67248;SDS011;54162;54.300;18.592;2022-08-06T03:25:02;7.25;;;1.42;;
67248;SDS011;54162;54.300;18.592;2022-08-06T03:27:30;3.42;;;1.50;;
67248;SDS011;54162;54.300;18.592;2022-08-06T03:29:56;3.25;;;1.17;;
67248;SDS011;54162;54.300;18.592;2022-08-06T03:32:23;3.85;;;1.00;;
67248;SDS011;54162;54.300;18.592;2022-08-06T03:34:49;3.17;;;1.02;;
67248;SDS011;54162;54.300;18.592;2022-08-06T03:37:18;3.53;;;1.00;;
67248;SDS011;54162;54.300;18.592;2022-08-06T03:39:44;3.20;;;1.20;;
67248;SDS011;54162;54.300;18.592;2022-08-06T03:42:11;5.82;;;1.00;;
67248;SDS011;54162;54.300;18.592;2022-08-06T03:44:36;4.03;;;1.10;;
67248;SDS011;54162;54.300;18.592;2022-08-06T03:49:38;4.32;;;1.10;;
67248;SDS011;54162;54.300;18.592;2022-08-06T03:52:07;5.78;;;1.10;;
67248;SDS011;54162;54.300;18.592;2022-08-06T03:54:36;2.90;;;1.05;;
67248;SDS011;54162;54.300;18.592;2022-08-06T03:57:11;4.93;;;1.10;;
67248;SDS011;54162;54.300;18.592;2022-08-06T03:59:40;5.63;;;1.30;;
67248;SDS011;54162;54.300;18.592;2022-08-06T04:02:08;4.10;;;1.50;;
67248;SDS011;54162;54.300;18.592;2022-08-06T04:04:34;4.18;;;1.27;;
67248;SDS011;54162;54.300;18.592;2022-08-06T04:07:01;4.50;;;1.20;;
67248;SDS011;54162;54.300;18.592;2022-08-06T04:09:27;4.38;;;1.10;;
67248;SDS011;54162;54.300;18.592;2022-08-06T04:11:54;3.53;;;1.10;;
67248;SDS011;54162;54.300;18.592;2022-08-06T04:14:20;3.88;;;1.20;;
67248;SDS011;54162;54.300;18.592;2022-08-06T04:16:47;5.50;;;1.17;;
67248;SDS011;54162;54.300;18.592;2022-08-06T04:19:13;4.00;;;1.05;;
67248;SDS011;54162;54.300;18.592;2022-08-06T04:21:39;4.93;;;1.15;;
67248;SDS011;54162;54.300;18.592;2022-08-06T04:24:05;3.67;;;1.27;;
67248;SDS011;54162;54.300;18.592;2022-08-06T04:26:31;3.53;;;1.30;;
67248;SDS011;54162;54.300;18.592;2022-08-06T04:28:59;4.28;;;1.20;;
67248;SDS011;54162;54.300;18.592;2022-08-06T04:31:26;4.10;;;1.48;;
67248;SDS011;54162;54.300;18.592;2022-08-06T04:33:54;5.40;;;1.42;;
67248;SDS011;54162;54.300;18.592;2022-08-06T04:36:21;3.40;;;1.30;;
67248;SDS011;54162;54.300;18.592;2022-08-06T04:38:47;3.70;;;1.00;;
67248;SDS011;54162;54.300;18.592;2022-08-06T04:41:13;4.47;;;1.20;;
67248;SDS011;54162;54.300;18.592;2022-08-06T04:43:39;4.00;;;1.20;;
67248;SDS011;54162;54.300;18.592;2022-08-06T04:46:06;4.05;;;1.20;;
67248;SDS011;54162;54.300;18.592;2022-08-06T04:48:33;4.28;;;1.30;;
67248;SDS011;54162;54.300;18.592;2022-08-06T04:51:03;2.90;;;1.20;;
67248;SDS011;54162;54.300;18.592;2022-08-06T04:53:35;4.38;;;1.30;;
67248;SDS011;54162;54.300;18.592;2022-08-06T04:56:02;3.55;;;1.20;;
67248;SDS011;54162;54.300;18.592;2022-08-06T04:58:28;4.75;;;1.40;;
67248;SDS011;54162;54.300;18.592;2022-08-06T05:00:53;3.40;;;1.20;;
67248;SDS011;54162;54.300;18.592;2022-08-06T05:03:19;2.60;;;1.23;;
67248;SDS011;54162;54.300;18.592;2022-08-06T05:05:47;3.00;;;1.10;;
67248;SDS011;54162;54.300;18.592;2022-08-06T05:08:19;4.55;;;1.20;;
67248;SDS011;54162;54.300;18.592;2022-08-06T05:10:48;7.05;;;1.20;;
67248;SDS011;54162;54.300;18.592;2022-08-06T05:13:21;3.95;;;1.35;;
67248;SDS011;54162;54.300;18.592;2022-08-06T05:15:53;4.30;;;1.27;;
67248;SDS011;54162;54.300;18.592;2022-08-06T05:18:25;3.67;;;1.10;;
67248;SDS011;54162;54.300;18.592;2022-08-06T05:20:55;3.95;;;1.23;;
67248;SDS011;54162;54.300;18.592;2022-08-06T05:23:39;3.72;;;1.23;;
67248;SDS011;54162;54.300;18.592;2022-08-06T05:26:08;3.30;;;1.10;;
67248;SDS011;54162;54.300;18.592;2022-08-06T05:28:34;4.30;;;1.08;;
67248;SDS011;54162;54.300;18.592;2022-08-06T05:31:04;3.03;;;1.00;;
67248;SDS011;54162;54.300;18.592;2022-08-06T05:33:32;4.15;;;1.02;;
67248;SDS011;54162;54.300;18.592;2022-08-06T05:36:01;3.30;;;1.10;;
67248;SDS011;54162;54.300;18.592;2022-08-06T05:38:29;6.13;;;1.10;;
67248;SDS011;54162;54.300;18.592;2022-08-06T05:40:55;4.77;;;1.27;;
67248;SDS011;54162;54.300;18.592;2022-08-06T05:43:21;3.30;;;1.02;;
67248;SDS011;54162;54.300;18.592;2022-08-06T05:45:49;3.22;;;1.10;;
67248;SDS011;54162;54.300;18.592;2022-08-06T05:48:19;4.70;;;1.10;;
67248;SDS011;54162;54.300;18.592;2022-08-06T05:50:48;4.22;;;1.40;;
67248;SDS011;54162;54.300;18.592;2022-08-06T05:53:20;3.95;;;1.20;;
67248;SDS011;54162;54.300;18.592;2022-08-06T05:55:51;3.30;;;0.93;;
67248;SDS011;54162;54.300;18.592;2022-08-06T05:58:24;4.50;;;1.00;;
67248;SDS011;54162;54.300;18.592;2022-08-06T06:01:00;3.88;;;1.00;;
67248;SDS011;54162;54.300;18.592;2022-08-06T06:03:28;2.65;;;1.00;;
67248;SDS011;54162;54.300;18.592;2022-08-06T06:05:57;5.75;;;1.10;;
67248;SDS011;54162;54.300;18.592;2022-08-06T06:08:25;2.17;;;0.88;;
67248;SDS011;54162;54.300;18.592;2022-08-06T06:10:51;5.27;;;1.23;;
67248;SDS011;54162;54.300;18.592;2022-08-06T06:13:17;2.70;;;1.00;;
67248;SDS011;54162;54.300;18.592;2022-08-06T06:15:47;2.90;;;1.00;;
67248;SDS011;54162;54.300;18.592;2022-08-06T06:18:27;3.38;;;1.05;;
67248;SDS011;54162;54.300;18.592;2022-08-06T06:26:57;4.72;;;0.85;;
67248;SDS011;54162;54.300;18.592;2022-08-06T06:29:35;3.60;;;1.05;;
67248;SDS011;54162;54.300;18.592;2022-08-06T06:32:10;4.72;;;1.00;;
67248;SDS011;54162;54.300;18.592;2022-08-06T06:34:56;4.38;;;0.93;;
67248;SDS011;54162;54.300;18.592;2022-08-06T06:37:34;3.53;;;1.10;;
67248;SDS011;54162;54.300;18.592;2022-08-06T06:42:44;5.20;;;1.23;;
67248;SDS011;54162;54.300;18.592;2022-08-06T06:48:20;3.83;;;1.02;;
67248;SDS011;54162;54.300;18.592;2022-08-06T06:50:52;2.33;;;0.90;;
67248;SDS011;54162;54.300;18.592;2022-08-06T06:53:22;2.90;;;1.13;;
67248;SDS011;54162;54.300;18.592;2022-08-06T06:55:54;3.30;;;1.00;;
67248;SDS011;54162;54.300;18.592;2022-08-06T06:58:41;4.85;;;1.00;;
67248;SDS011;54162;54.300;18.592;2022-08-06T07:01:11;3.65;;;1.08;;
67248;SDS011;54162;54.300;18.592;2022-08-06T07:03:38;3.08;;;1.00;;
67248;SDS011;54162;54.300;18.592;2022-08-06T07:06:05;3.55;;;1.10;;
67248;SDS011;54162;54.300;18.592;2022-08-06T07:08:33;5.03;;;1.05;;
67248;SDS011;54162;54.300;18.592;2022-08-06T07:11:02;3.50;;;1.00;;
67248;SDS011;54162;54.300;18.592;2022-08-06T07:13:30;6.20;;;1.17;;
67248;SDS011;54162;54.300;18.592;2022-08-06T07:15:57;8.05;;;1.30;;
67248;SDS011;54162;54.300;18.592;2022-08-06T07:18:23;4.00;;;1.10;;
67248;SDS011;54162;54.300;18.592;2022-08-06T07:20:51;4.05;;;0.98;;
67248;SDS011;54162;54.300;18.592;2022-08-06T07:23:18;3.88;;;1.20;;
67248;SDS011;54162;54.300;18.592;2022-08-06T07:25:46;5.18;;;1.30;;
67248;SDS011;54162;54.300;18.592;2022-08-06T07:28:13;3.30;;;1.27;;
67248;SDS011;54162;54.300;18.592;2022-08-06T07:30:40;3.35;;;1.00;;
67248;SDS011;54162;54.300;18.592;2022-08-06T07:33:07;4.47;;;1.38;;
67248;SDS011;54162;54.300;18.592;2022-08-06T07:35:35;5.78;;;1.30;;
67248;SDS011;54162;54.300;18.592;2022-08-06T07:38:05;4.93;;;1.10;;
67248;SDS011;54162;54.300;18.592;2022-08-06T07:40:36;4.63;;;1.08;;
67248;SDS011;54162;54.300;18.592;2022-08-06T07:43:08;4.45;;;1.13;;
67248;SDS011;54162;54.300;18.592;2022-08-06T07:45:41;2.80;;;1.05;;
67248;SDS011;54162;54.300;18.592;2022-08-06T07:48:09;4.20;;;1.00;;
67248;SDS011;54162;54.300;18.592;2022-08-06T07:50:37;2.03;;;0.90;;
67248;SDS011;54162;54.300;18.592;2022-08-06T07:53:04;3.70;;;1.10;;
67248;SDS011;54162;54.300;18.592;2022-08-06T07:55:31;4.60;;;1.15;;
67248;SDS011;54162;54.300;18.592;2022-08-06T07:57:58;2.77;;;1.20;;
67248;SDS011;54162;54.300;18.592;2022-08-06T08:00:26;5.20;;;1.10;;
67248;SDS011;54162;54.300;18.592;2022-08-06T08:02:52;4.80;;;1.30;;
67248;SDS011;54162;54.300;18.592;2022-08-06T08:05:37;4.72;;;1.10;;
67248;SDS011;54162;54.300;18.592;2022-08-06T08:08:22;4.10;;;1.15;;
67248;SDS011;54162;54.300;18.592;2022-08-06T08:10:49;3.67;;;1.03;;
67248;SDS011;54162;54.300;18.592;2022-08-06T08:13:17;3.53;;;1.17;;
67248;SDS011;54162;54.300;18.592;2022-08-06T08:15:44;6.43;;;1.25;;
67248;SDS011;54162;54.300;18.592;2022-08-06T08:18:11;3.92;;;1.25;;
67248;SDS011;54162;54.300;18.592;2022-08-06T08:20:37;4.03;;;1.10;;
67248;SDS011;54162;54.300;18.592;2022-08-06T08:23:04;4.82;;;1.15;;
67248;SDS011;54162;54.300;18.592;2022-08-06T08:25:34;4.47;;;1.00;;
67248;SDS011;54162;54.300;18.592;2022-08-06T08:28:00;4.75;;;1.30;;
67248;SDS011;54162;54.300;18.592;2022-08-06T08:30:25;2.90;;;1.17;;
67248;SDS011;54162;54.300;18.592;2022-08-06T08:32:51;5.33;;;1.20;;
67248;SDS011;54162;54.300;18.592;2022-08-06T08:35:16;2.83;;;1.13;;
67248;SDS011;54162;54.300;18.592;2022-08-06T08:37:42;3.07;;;1.10;;
67248;SDS011;54162;54.300;18.592;2022-08-06T08:40:08;4.23;;;1.30;;
67248;SDS011;54162;54.300;18.592;2022-08-06T08:42:43;3.92;;;1.38;;
67248;SDS011;54162;54.300;18.592;2022-08-06T08:45:13;5.15;;;1.40;;
67248;SDS011;54162;54.300;18.592;2022-08-06T08:47:43;3.63;;;1.40;;
67248;SDS011;54162;54.300;18.592;2022-08-06T08:50:11;4.17;;;1.53;;
67248;SDS011;54162;54.300;18.592;2022-08-06T08:52:38;4.93;;;1.20;;
67248;SDS011;54162;54.300;18.592;2022-08-06T08:55:09;4.47;;;1.27;;
67248;SDS011;54162;54.300;18.592;2022-08-06T08:57:36;3.40;;;1.20;;
67248;SDS011;54162;54.300;18.592;2022-08-06T09:00:03;4.60;;;1.27;;
67248;SDS011;54162;54.300;18.592;2022-08-06T09:02:30;4.25;;;1.40;;
67248;SDS011;54162;54.300;18.592;2022-08-06T09:04:56;3.60;;;1.40;;
67248;SDS011;54162;54.300;18.592;2022-08-06T09:07:22;5.03;;;1.30;;
67248;SDS011;54162;54.300;18.592;2022-08-06T09:09:49;3.78;;;1.30;;
67248;SDS011;54162;54.300;18.592;2022-08-06T09:12:15;9.17;;;1.40;;
67248;SDS011;54162;54.300;18.592;2022-08-06T09:14:41;4.68;;;1.27;;
67248;SDS011;54162;54.300;18.592;2022-08-06T09:17:08;4.78;;;1.20;;
67248;SDS011;54162;54.300;18.592;2022-08-06T09:19:34;3.25;;;1.05;;
67248;SDS011;54162;54.300;18.592;2022-08-06T09:22:00;2.63;;;1.00;;
67248;SDS011;54162;54.300;18.592;2022-08-06T09:24:26;3.95;;;1.10;;
67248;SDS011;54162;54.300;18.592;2022-08-06T09:27:05;2.70;;;1.08;;
67248;SDS011;54162;54.300;18.592;2022-08-06T09:29:47;2.60;;;1.00;;
67248;SDS011;54162;54.300;18.592;2022-08-06T09:35:19;2.65;;;0.90;;
67248;SDS011;54162;54.300;18.592;2022-08-06T09:37:50;2.78;;;1.00;;
67248;SDS011;54162;54.300;18.592;2022-08-06T09:40:27;4.05;;;1.00;;
67248;SDS011;54162;54.300;18.592;2022-08-06T09:42:52;3.60;;;0.90;;
67248;SDS011;54162;54.300;18.592;2022-08-06T09:45:21;3.27;;;1.17;;
67248;SDS011;54162;54.300;18.592;2022-08-06T09:47:48;2.95;;;0.80;;
67248;SDS011;54162;54.300;18.592;2022-08-06T09:53:08;2.22;;;1.10;;
67248;SDS011;54162;54.300;18.592;2022-08-06T09:55:35;3.33;;;0.80;;
67248;SDS011;54162;54.300;18.592;2022-08-06T09:58:01;3.00;;;0.95;;
67248;SDS011;54162;54.300;18.592;2022-08-06T10:00:27;3.13;;;1.00;;
67248;SDS011;54162;54.300;18.592;2022-08-06T10:03:04;3.78;;;0.95;;
67248;SDS011;54162;54.300;18.592;2022-08-06T10:05:32;3.45;;;0.90;;
67248;SDS011;54162;54.300;18.592;2022-08-06T10:08:14;2.30;;;0.77;;
67248;SDS011;54162;54.300;18.592;2022-08-06T10:10:47;2.67;;;0.80;;
67248;SDS011;54162;54.300;18.592;2022-08-06T10:15:45;3.53;;;1.00;;
67248;SDS011;54162;54.300;18.592;2022-08-06T10:21:00;5.33;;;1.07;;
67248;SDS011;54162;54.300;18.592;2022-08-06T10:23:28;2.67;;;0.80;;
67248;SDS011;54162;54.300;18.592;2022-08-06T10:25:57;3.30;;;0.70;;
67248;SDS011;54162;54.300;18.592;2022-08-06T10:28:23;2.28;;;0.80;;
67248;SDS011;54162;54.300;18.592;2022-08-06T10:30:51;3.33;;;0.90;;
67248;SDS011;54162;54.300;18.592;2022-08-06T10:33:18;3.80;;;0.80;;
67248;SDS011;54162;54.300;18.592;2022-08-06T10:35:45;3.13;;;0.70;;
67248;SDS011;54162;54.300;18.592;2022-08-06T10:38:14;3.78;;;0.88;;
67248;SDS011;54162;54.300;18.592;2022-08-06T10:40:44;3.65;;;0.82;;
67248;SDS011;54162;54.300;18.592;2022-08-06T10:43:13;3.23;;;0.80;;
67248;SDS011;54162;54.300;18.592;2022-08-06T10:45:40;6.03;;;1.08;;
67248;SDS011;54162;54.300;18.592;2022-08-06T10:48:06;3.10;;;0.80;;
67248;SDS011;54162;54.300;18.592;2022-08-06T10:50:33;2.97;;;0.80;;
67248;SDS011;54162;54.300;18.592;2022-08-06T10:53:00;4.90;;;0.85;;
67248;SDS011;54162;54.300;18.592;2022-08-06T10:55:28;4.33;;;1.00;;
67248;SDS011;54162;54.300;18.592;2022-08-06T10:57:54;4.00;;;0.70;;
67248;SDS011;54162;54.300;18.592;2022-08-06T11:00:20;2.30;;;0.70;;
67248;SDS011;54162;54.300;18.592;2022-08-06T11:02:57;2.33;;;0.70;;
67248;SDS011;54162;54.300;18.592;2022-08-06T11:05:44;2.80;;;0.70;;
67248;SDS011;54162;54.300;18.592;2022-08-06T11:11:54;3.55;;;0.70;;
67248;SDS011;54162;54.300;18.592;2022-08-06T11:14:32;3.75;;;0.70;;
67248;SDS011;54162;54.300;18.592;2022-08-06T11:17:01;3.25;;;0.70;;
67248;SDS011;54162;54.300;18.592;2022-08-06T11:19:43;2.83;;;0.70;;
67248;SDS011;54162;54.300;18.592;2022-08-06T11:22:34;4.35;;;0.80;;
67248;SDS011;54162;54.300;18.592;2022-08-06T11:25:00;2.63;;;0.63;;
67248;SDS011;54162;54.300;18.592;2022-08-06T11:27:46;3.22;;;0.70;;
67248;SDS011;54162;54.300;18.592;2022-08-06T11:30:12;3.87;;;0.60;;
67248;SDS011;54162;54.300;18.592;2022-08-06T11:32:45;2.88;;;0.70;;
67248;SDS011;54162;54.300;18.592;2022-08-06T11:37:59;2.42;;;0.73;;
67248;SDS011;54162;54.300;18.592;2022-08-06T11:40:25;1.97;;;0.50;;
67248;SDS011;54162;54.300;18.592;2022-08-06T11:42:51;3.28;;;0.60;;
67248;SDS011;54162;54.300;18.592;2022-08-06T11:45:17;2.92;;;0.60;;
67248;SDS011;54162;54.300;18.592;2022-08-06T11:50:31;2.92;;;0.70;;
67248;SDS011;54162;54.300;18.592;2022-08-06T11:52:56;4.33;;;0.60;;
67248;SDS011;54162;54.300;18.592;2022-08-06T11:55:22;2.93;;;0.60;;
67248;SDS011;54162;54.300;18.592;2022-08-06T11:57:48;3.42;;;0.93;;
67248;SDS011;54162;54.300;18.592;2022-08-06T12:00:34;4.65;;;1.20;;
67248;SDS011;54162;54.300;18.592;2022-08-06T12:03:37;2.53;;;0.67;;
67248;SDS011;54162;54.300;18.592;2022-08-06T12:06:18;1.77;;;0.60;;
67248;SDS011;54162;54.300;18.592;2022-08-06T12:12:10;3.25;;;0.75;;
67248;SDS011;54162;54.300;18.592;2022-08-06T12:14:58;2.38;;;0.65;;
67248;SDS011;54162;54.300;18.592;2022-08-06T12:20:38;2.95;;;0.70;;
67248;SDS011;54162;54.300;18.592;2022-08-06T12:23:09;2.47;;;0.63;;
67248;SDS011;54162;54.300;18.592;2022-08-06T12:25:40;1.95;;;0.70;;
67248;SDS011;54162;54.300;18.592;2022-08-06T12:28:08;2.33;;;0.60;;
67248;SDS011;54162;54.300;18.592;2022-08-06T12:30:44;2.00;;;0.60;;
67248;SDS011;54162;54.300;18.592;2022-08-06T12:33:18;2.55;;;0.70;;
67248;SDS011;54162;54.300;18.592;2022-08-06T12:35:52;2.95;;;0.60;;
67248;SDS011;54162;54.300;18.592;2022-08-06T12:38:23;3.85;;;0.70;;
67248;SDS011;54162;54.300;18.592;2022-08-06T12:41:02;2.75;;;0.80;;
67248;SDS011;54162;54.300;18.592;2022-08-06T12:43:33;3.50;;;0.70;;
67248;SDS011;54162;54.300;18.592;2022-08-06T12:46:02;2.00;;;0.60;;
67248;SDS011;54162;54.300;18.592;2022-08-06T12:48:32;4.35;;;0.60;;
67248;SDS011;54162;54.300;18.592;2022-08-06T12:51:06;3.22;;;0.70;;
67248;SDS011;54162;54.300;18.592;2022-08-06T12:53:41;3.42;;;0.80;;
67248;SDS011;54162;54.300;18.592;2022-08-06T12:56:28;4.40;;;0.80;;
67248;SDS011;54162;54.300;18.592;2022-08-06T12:58:55;1.83;;;0.60;;
67248;SDS011;54162;54.300;18.592;2022-08-06T13:01:22;3.20;;;1.20;;
67248;SDS011;54162;54.300;18.592;2022-08-06T13:03:50;4.45;;;0.80;;
67248;SDS011;54162;54.300;18.592;2022-08-06T13:06:18;3.42;;;0.88;;
67248;SDS011;54162;54.300;18.592;2022-08-06T13:08:48;2.37;;;0.70;;
67248;SDS011;54162;54.300;18.592;2022-08-06T13:11:15;4.95;;;0.80;;
67248;SDS011;54162;54.300;18.592;2022-08-06T13:16:15;3.17;;;0.90;;
67248;SDS011;54162;54.300;18.592;2022-08-06T13:18:41;7.20;;;0.98;;
67248;SDS011;54162;54.300;18.592;2022-08-06T13:21:28;3.78;;;0.80;;
67248;SDS011;54162;54.300;18.592;2022-08-06T13:23:54;4.30;;;0.60;;
67248;SDS011;54162;54.300;18.592;2022-08-06T13:26:27;2.60;;;0.70;;
67248;SDS011;54162;54.300;18.592;2022-08-06T13:31:39;5.07;;;0.70;;
67248;SDS011;54162;54.300;18.592;2022-08-06T13:34:06;3.35;;;0.88;;
67248;SDS011;54162;54.300;18.592;2022-08-06T13:36:35;2.50;;;0.85;;
67248;SDS011;54162;54.300;18.592;2022-08-06T13:39:19;2.97;;;0.90;;
67248;SDS011;54162;54.300;18.592;2022-08-06T13:41:59;5.65;;;1.88;;
67248;SDS011;54162;54.300;18.592;2022-08-06T13:44:33;5.13;;;0.90;;
67248;SDS011;54162;54.300;18.592;2022-08-06T13:47:03;3.88;;;0.90;;
67248;SDS011;54162;54.300;18.592;2022-08-06T13:49:30;3.40;;;0.80;;
67248;SDS011;54162;54.300;18.592;2022-08-06T13:51:56;3.13;;;0.95;;
67248;SDS011;54162;54.300;18.592;2022-08-06T13:54:22;4.13;;;0.90;;
67248;SDS011;54162;54.300;18.592;2022-08-06T13:56:49;3.30;;;0.80;;
67248;SDS011;54162;54.300;18.592;2022-08-06T13:59:16;5.55;;;0.70;;
67248;SDS011;54162;54.300;18.592;2022-08-06T14:01:42;4.32;;;0.90;;
67248;SDS011;54162;54.300;18.592;2022-08-06T14:04:08;2.88;;;0.80;;
67248;SDS011;54162;54.300;18.592;2022-08-06T14:06:33;4.50;;;0.77;;
67248;SDS011;54162;54.300;18.592;2022-08-06T14:08:59;3.70;;;0.87;;
67248;SDS011;54162;54.300;18.592;2022-08-06T14:11:25;3.92;;;0.90;;
67248;SDS011;54162;54.300;18.592;2022-08-06T14:13:50;4.93;;;0.80;;
67248;SDS011;54162;54.300;18.592;2022-08-06T14:16:16;2.58;;;0.93;;
67248;SDS011;54162;54.300;18.592;2022-08-06T14:18:41;3.57;;;0.70;;
67248;SDS011;54162;54.300;18.592;2022-08-06T14:21:07;5.93;;;0.97;;
67248;SDS011;54162;54.300;18.592;2022-08-06T14:23:33;4.57;;;0.90;;
67248;SDS011;54162;54.300;18.592;2022-08-06T14:25:59;3.80;;;0.80;;
67248;SDS011;54162;54.300;18.592;2022-08-06T14:28:26;3.17;;;0.82;;
67248;SDS011;54162;54.300;18.592;2022-08-06T14:30:52;3.70;;;0.83;;
67248;SDS011;54162;54.300;18.592;2022-08-06T14:33:17;2.37;;;0.80;;
67248;SDS011;54162;54.300;18.592;2022-08-06T14:35:43;3.60;;;0.90;;
67248;SDS011;54162;54.300;18.592;2022-08-06T14:38:08;3.17;;;0.77;;
67248;SDS011;54162;54.300;18.592;2022-08-06T14:40:36;4.40;;;1.00;;
67248;SDS011;54162;54.300;18.592;2022-08-06T14:43:20;3.70;;;1.00;;
67248;SDS011;54162;54.300;18.592;2022-08-06T14:46:04;3.05;;;0.80;;
67248;SDS011;54162;54.300;18.592;2022-08-06T14:48:29;4.10;;;0.80;;
67248;SDS011;54162;54.300;18.592;2022-08-06T14:50:55;2.37;;;0.80;;
67248;SDS011;54162;54.300;18.592;2022-08-06T14:53:20;3.55;;;0.90;;
67248;SDS011;54162;54.300;18.592;2022-08-06T14:55:46;2.47;;;0.90;;
67248;SDS011;54162;54.300;18.592;2022-08-06T14:58:11;3.57;;;1.00;;
67248;SDS011;54162;54.300;18.592;2022-08-06T15:00:37;4.90;;;1.33;;
67248;SDS011;54162;54.300;18.592;2022-08-06T15:03:03;3.97;;;1.20;;
67248;SDS011;54162;54.300;18.592;2022-08-06T15:05:32;8.65;;;0.98;;
67248;SDS011;54162;54.300;18.592;2022-08-06T15:08:00;3.22;;;0.90;;
67248;SDS011;54162;54.300;18.592;2022-08-06T15:10:26;2.78;;;0.80;;
67248;SDS011;54162;54.300;18.592;2022-08-06T15:12:51;4.73;;;0.90;;
67248;SDS011;54162;54.300;18.592;2022-08-06T15:15:17;2.40;;;0.80;;
67248;SDS011;54162;54.300;18.592;2022-08-06T15:17:43;7.53;;;1.20;;
67248;SDS011;54162;54.300;18.592;2022-08-06T15:20:08;3.77;;;1.10;;
67248;SDS011;54162;54.300;18.592;2022-08-06T15:22:34;5.43;;;1.00;;
67248;SDS011;54162;54.300;18.592;2022-08-06T15:25:00;4.33;;;0.90;;
67248;SDS011;54162;54.300;18.592;2022-08-06T15:27:25;4.78;;;0.90;;
67248;SDS011;54162;54.300;18.592;2022-08-06T15:29:51;3.20;;;0.80;;
67248;SDS011;54162;54.300;18.592;2022-08-06T15:32:16;3.87;;;0.93;;
67248;SDS011;54162;54.300;18.592;2022-08-06T15:34:42;2.55;;;0.80;;
67248;SDS011;54162;54.300;18.592;2022-08-06T15:37:07;5.43;;;1.00;;
67248;SDS011;54162;54.300;18.592;2022-08-06T15:39:33;5.10;;;0.90;;
67248;SDS011;54162;54.300;18.592;2022-08-06T15:41:59;3.37;;;1.00;;
67248;SDS011;54162;54.300;18.592;2022-08-06T15:44:25;3.30;;;0.90;;
67248;SDS011;54162;54.300;18.592;2022-08-06T15:46:51;4.18;;;0.80;;